createdAt,value
2018-03-07T00:00:44.002Z,61.92
2018-03-07T00:01:46.564Z,62.55
2018-03-07T00:02:49.133Z,60.90
2018-03-07T00:03:51.670Z,60.40
2018-03-07T00:04:54.222Z,58.30
2018-03-07T00:05:57.513Z,62.72
2018-03-07T00:07:00.850Z,58.72
2018-03-07T00:08:03.382Z,60.95
2018-03-07T00:09:05.926Z,59.83
2018-03-07T00:10:09.225Z,56.15
2018-03-07T00:11:12.530Z,59.60
2018-03-07T00:12:15.102Z,59.88
2018-03-07T00:13:17.626Z,59.97
2018-03-07T00:14:20.148Z,62.78
2018-03-07T00:15:22.691Z,59.40
2018-03-07T00:16:25.226Z,59.22
2018-03-07T00:17:28.557Z,60.25
2018-03-07T00:18:31.102Z,58.05
2018-03-07T00:19:33.622Z,58.80
2018-03-07T00:20:36.150Z,59.05
2018-03-07T00:21:38.724Z,59.90
2018-03-07T00:22:41.261Z,59.45
2018-03-07T00:23:43.789Z,60.60
2018-03-07T00:24:46.329Z,57.78
2018-03-07T00:25:48.861Z,57.25
2018-03-07T00:26:51.420Z,60.88
2018-03-07T00:27:53.958Z,58.78
2018-03-07T00:28:56.494Z,58.83
2018-03-07T00:29:59.022Z,57.90
2018-03-07T00:31:01.561Z,59.08
2018-03-07T00:32:04.829Z,58.35
2018-03-07T00:33:07.361Z,60.30
2018-03-07T00:34:09.894Z,59.90
2018-03-07T00:35:13.181Z,59.58
2018-03-07T00:36:15.705Z,56.97
2018-03-07T00:37:18.270Z,58.38
2018-03-07T00:38:20.803Z,59.40
2018-03-07T00:39:23.366Z,58.22
2018-03-07T00:40:25.889Z,59.45
2018-03-07T00:41:28.414Z,59.28
2018-03-07T00:42:30.976Z,59.35
2018-03-07T00:43:33.502Z,60.08
2018-03-07T00:44:36.790Z,61.45
2018-03-07T00:45:40.088Z,58.72
2018-03-07T00:46:42.617Z,57.05
2018-03-07T00:47:45.185Z,56.30
2018-03-07T00:48:47.722Z,58.65
2018-03-07T00:49:50.294Z,57.60
2018-03-07T00:50:52.825Z,60.65
2018-03-07T00:51:55.361Z,59.83
2018-03-07T00:52:57.930Z,59.58
2018-03-07T00:54:01.262Z,58.00
2018-03-07T00:55:03.797Z,60.00
2018-03-07T00:56:06.341Z,58.55
2018-03-07T00:57:08.883Z,58.72
2018-03-07T00:58:11.415Z,62.55
2018-03-07T00:59:13.981Z,61.03
2018-03-07T01:00:16.506Z,59.25
2018-03-07T01:01:19.806Z,60.38
2018-03-07T01:02:23.111Z,60.08
2018-03-07T01:03:25.638Z,58.47
2018-03-07T01:04:28.205Z,57.33
2018-03-07T01:05:30.782Z,59.15
2018-03-07T01:06:34.107Z,57.90
2018-03-07T01:07:36.639Z,58.97
2018-03-07T01:08:39.949Z,58.55
2018-03-07T01:09:42.506Z,58.85
2018-03-07T01:10:45.050Z,58.58
2018-03-07T01:11:48.345Z,59.75
2018-03-07T01:12:51.768Z,60.88
2018-03-07T01:13:54.297Z,59.05
2018-03-07T01:14:56.850Z,58.47
2018-03-07T01:16:00.151Z,56.97
2018-03-07T01:17:02.741Z,57.55
2018-03-07T01:18:05.268Z,56.45
2018-03-07T01:19:07.786Z,57.62
2018-03-07T01:20:10.319Z,58.53
2018-03-07T01:21:13.614Z,58.08
2018-03-07T01:22:16.170Z,60.65
2018-03-07T01:23:18.707Z,61.53
2018-03-07T01:24:21.229Z,59.30
2018-03-07T01:25:23.774Z,58.85
2018-03-07T01:26:26.306Z,62.95
2018-03-07T01:27:28.879Z,58.03
2018-03-07T01:28:31.418Z,59.03
2018-03-07T01:29:33.954Z,58.58
2018-03-07T01:30:36.494Z,61.72
2018-03-07T01:31:39.795Z,57.70
2018-03-07T01:32:42.365Z,59.45
2018-03-07T01:33:44.938Z,61.65
2018-03-07T01:34:47.462Z,60.72
2018-03-07T01:35:49.993Z,58.60
2018-03-07T01:36:52.527Z,59.83
2018-03-07T01:37:55.105Z,59.92
2018-03-07T01:38:57.636Z,58.95
2018-03-07T01:40:00.974Z,58.33
2018-03-07T01:41:03.512Z,60.90
2018-03-07T01:42:06.046Z,57.75
2018-03-07T01:43:09.336Z,62.50
2018-03-07T01:44:12.670Z,59.13
2018-03-07T01:45:15.198Z,59.72
2018-03-07T01:46:17.736Z,61.80
2018-03-07T01:47:20.268Z,61.78
2018-03-07T01:48:22.798Z,61.20
2018-03-07T01:49:25.375Z,60.47
2018-03-07T01:50:27.914Z,58.38
2018-03-07T01:51:43.098Z,60.22
2018-03-07T01:52:45.642Z,59.38
2018-03-07T01:53:48.940Z,60.80
2018-03-07T01:54:52.276Z,58.53
2018-03-07T01:55:54.815Z,60.40
2018-03-07T01:56:57.362Z,61.40
2018-03-07T01:57:59.918Z,60.15
2018-03-07T01:59:02.480Z,62.83
2018-03-07T02:00:05.821Z,62.78
2018-03-07T02:01:08.350Z,59.50
2018-03-07T02:02:10.898Z,60.63
2018-03-07T02:03:14.187Z,58.58
2018-03-07T02:04:16.721Z,59.67
2018-03-07T02:05:19.304Z,58.42
2018-03-07T02:06:22.610Z,58.60
2018-03-07T02:07:25.926Z,60.22
2018-03-07T02:08:28.453Z,60.15
2018-03-07T02:09:31.021Z,57.60
2018-03-07T02:10:34.324Z,57.95
2018-03-07T02:11:36.865Z,58.87
2018-03-07T02:12:40.159Z,57.62
2018-03-07T02:13:43.245Z,57.90
2018-03-07T02:14:45.824Z,59.45
2018-03-07T02:15:48.358Z,58.40
2018-03-07T02:16:51.656Z,58.87
2018-03-07T02:17:54.974Z,60.75
2018-03-07T02:18:57.546Z,59.75
2018-03-07T02:20:00.121Z,59.13
2018-03-07T02:21:02.646Z,59.20
2018-03-07T02:22:05.173Z,61.95
2018-03-07T02:23:07.699Z,57.62
2018-03-07T02:24:10.226Z,57.38
2018-03-07T02:25:13.562Z,60.05
2018-03-07T02:26:16.094Z,56.95
2018-03-07T02:27:18.678Z,59.50
2018-03-07T02:28:21.221Z,58.90
2018-03-07T02:29:23.749Z,58.78
2018-03-07T02:30:26.322Z,58.10
2018-03-07T02:31:28.866Z,58.75
2018-03-07T02:32:31.401Z,61.15
2018-03-07T02:33:33.929Z,55.92
2018-03-07T02:34:36.485Z,55.28
2018-03-07T02:35:39.023Z,56.63
2018-03-07T02:36:41.583Z,57.10
2018-03-07T02:37:44.121Z,56.83
2018-03-07T02:38:46.670Z,55.97
2018-03-07T02:39:50.012Z,55.92
2018-03-07T02:40:52.586Z,56.17
2018-03-07T02:41:55.118Z,52.88
2018-03-07T02:42:57.654Z,57.85
2018-03-07T02:44:00.981Z,56.70
2018-03-07T02:45:03.511Z,59.92
2018-03-07T02:46:06.818Z,56.85
2018-03-07T02:47:09.383Z,56.83
2018-03-07T02:48:11.915Z,58.28
2018-03-07T02:49:14.443Z,57.15
2018-03-07T02:50:16.972Z,58.75
2018-03-07T02:51:19.535Z,58.22
2018-03-07T02:52:22.076Z,62.88
2018-03-07T02:53:24.612Z,61.37
2018-03-07T02:54:27.161Z,61.70
2018-03-07T02:55:29.686Z,64.93
2018-03-07T02:56:33.027Z,64.32
2018-03-07T02:57:35.560Z,65.72
2018-03-07T02:58:38.094Z,63.50
2018-03-07T02:59:40.667Z,66.57
2018-03-07T03:00:43.980Z,62.35
2018-03-07T03:01:46.501Z,66.37
2018-03-07T03:02:49.026Z,62.50
2018-03-07T03:03:51.563Z,63.53
2018-03-07T03:04:54.130Z,61.72
2018-03-07T03:05:57.451Z,64.62
2018-03-07T03:06:59.993Z,62.58
2018-03-07T03:08:02.519Z,64.93
2018-03-07T03:09:05.080Z,63.42
2018-03-07T03:10:07.654Z,64.00
2018-03-07T03:11:10.236Z,64.20
2018-03-07T03:12:13.526Z,59.63
2018-03-07T03:13:16.820Z,60.60
2018-03-07T03:14:19.355Z,61.55
2018-03-07T03:15:21.929Z,60.72
2018-03-07T03:16:24.455Z,63.00
2018-03-07T03:17:26.981Z,61.28
2018-03-07T03:18:29.513Z,60.15
2018-03-07T03:19:32.043Z,61.80
2018-03-07T03:20:34.626Z,62.05
2018-03-07T03:21:37.156Z,61.70
2018-03-07T03:22:39.722Z,59.63
2018-03-07T03:23:42.307Z,58.92
2018-03-07T03:24:44.851Z,59.85
2018-03-07T03:25:47.385Z,57.35
2018-03-07T03:26:49.912Z,59.13
2018-03-07T03:27:52.438Z,58.05
2018-03-07T03:28:55.780Z,59.75
2018-03-07T03:29:58.306Z,59.50
2018-03-07T03:31:00.842Z,58.50
2018-03-07T03:32:03.367Z,58.95
2018-03-07T03:33:05.909Z,59.88
2018-03-07T03:34:08.486Z,58.58
2018-03-07T03:35:11.014Z,57.47
2018-03-07T03:36:14.342Z,61.40
2018-03-07T03:37:16.866Z,58.63
2018-03-07T03:38:20.162Z,57.78
2018-03-07T03:39:22.690Z,58.83
2018-03-07T03:40:25.257Z,60.50
2018-03-07T03:41:27.799Z,60.30
2018-03-07T03:42:30.322Z,56.20
2018-03-07T03:43:32.889Z,60.47
2018-03-07T03:44:36.175Z,58.72
2018-03-07T03:45:39.469Z,56.85
2018-03-07T03:46:42.006Z,58.25
2018-03-07T03:47:45.307Z,57.05
2018-03-07T03:48:47.880Z,57.00
2018-03-07T03:49:50.418Z,58.67
2018-03-07T03:50:52.990Z,59.03
2018-03-07T03:51:55.512Z,58.25
2018-03-07T03:52:58.041Z,58.35
2018-03-07T03:54:00.581Z,60.05
2018-03-07T03:55:03.104Z,59.65
2018-03-07T03:56:05.671Z,59.55
2018-03-07T03:57:08.203Z,58.90
2018-03-07T03:58:11.538Z,56.70
2018-03-07T03:59:14.069Z,60.10
2018-03-07T04:00:16.598Z,57.42
2018-03-07T04:01:19.164Z,60.20
2018-03-07T04:02:21.701Z,58.25
2018-03-07T04:03:24.255Z,60.15
2018-03-07T04:04:26.791Z,60.50
2018-03-07T04:05:30.086Z,60.17
2018-03-07T04:06:32.646Z,61.17
2018-03-07T04:07:35.178Z,59.65
2018-03-07T04:08:37.706Z,59.83
2018-03-07T04:09:40.269Z,59.53
2018-03-07T04:10:42.808Z,61.08
2018-03-07T04:11:46.134Z,59.55
2018-03-07T04:12:48.661Z,59.20
2018-03-07T04:13:51.194Z,62.67
2018-03-07T04:14:54.406Z,58.70
2018-03-07T04:15:56.937Z,59.47
2018-03-07T04:16:59.467Z,59.97
2018-03-07T04:18:02.023Z,59.10
2018-03-07T04:19:04.551Z,62.53
2018-03-07T04:20:08.340Z,59.40
2018-03-07T04:21:11.650Z,58.78
2018-03-07T04:22:14.182Z,59.40
2018-03-07T04:23:16.717Z,61.22
2018-03-07T04:24:19.245Z,57.90
2018-03-07T04:25:22.574Z,57.10
2018-03-07T04:26:25.096Z,60.08
2018-03-07T04:27:27.637Z,59.67
2018-03-07T04:28:30.186Z,58.47
2018-03-07T04:29:32.759Z,58.95
2018-03-07T04:30:35.298Z,59.83
2018-03-07T04:31:37.820Z,60.70
2018-03-07T04:32:41.113Z,57.62
2018-03-07T04:33:44.425Z,57.45
2018-03-07T04:34:47.766Z,57.95
2018-03-07T04:35:51.047Z,59.13
2018-03-07T04:36:54.344Z,59.72
2018-03-07T04:37:57.638Z,58.55
2018-03-07T04:39:00.160Z,59.33
2018-03-07T04:40:02.749Z,61.92
2018-03-07T04:41:06.042Z,57.53
2018-03-07T04:42:09.340Z,58.97
2018-03-07T04:43:11.869Z,57.75
2018-03-07T04:44:14.394Z,57.55
2018-03-07T04:45:16.956Z,57.90
2018-03-07T04:46:19.514Z,58.87
2018-03-07T04:47:22.057Z,58.13
2018-03-07T04:48:25.358Z,57.78
2018-03-07T04:49:27.891Z,60.83
2018-03-07T04:50:30.468Z,59.80
2018-03-07T04:51:33.759Z,59.28
2018-03-07T04:52:37.094Z,57.30
2018-03-07T04:53:39.635Z,58.72
2018-03-07T04:54:42.153Z,58.35
2018-03-07T04:55:44.682Z,54.45
2018-03-07T04:56:47.206Z,59.92
2018-03-07T04:57:50.566Z,62.95
2018-03-07T04:58:53.098Z,57.58
2018-03-07T04:59:55.627Z,61.92
2018-03-07T05:00:58.917Z,58.50
2018-03-07T05:02:02.233Z,60.80
2018-03-07T05:03:04.803Z,60.00
2018-03-07T05:04:07.330Z,62.20
2018-03-07T05:05:10.660Z,62.00
2018-03-07T05:06:13.196Z,60.70
2018-03-07T05:07:15.719Z,63.13
2018-03-07T05:08:18.262Z,61.50
2018-03-07T05:09:20.796Z,59.85
2018-03-07T05:10:23.382Z,61.60
2018-03-07T05:11:25.928Z,62.35
2018-03-07T05:12:28.449Z,59.35
2018-03-07T05:13:30.974Z,60.83
2018-03-07T05:14:33.529Z,61.90
2018-03-07T05:15:36.060Z,58.80
2018-03-07T05:16:38.598Z,60.28
2018-03-07T05:17:41.127Z,59.92
2018-03-07T05:18:43.712Z,63.17
2018-03-07T05:19:46.239Z,61.00
2018-03-07T05:20:49.562Z,60.22
2018-03-07T05:21:52.092Z,61.58
2018-03-07T05:22:55.390Z,60.72
2018-03-07T05:23:57.936Z,60.85
2018-03-07T05:25:01.257Z,59.97
2018-03-07T05:26:03.786Z,61.20
2018-03-07T05:27:06.305Z,61.90
2018-03-07T05:28:08.877Z,62.78
2018-03-07T05:29:11.409Z,61.28
2018-03-07T05:30:13.940Z,60.50
2018-03-07T05:31:16.467Z,64.00
2018-03-07T05:32:19.001Z,63.97
2018-03-07T05:33:21.588Z,61.55
2018-03-07T05:34:24.106Z,60.83
2018-03-07T05:35:26.634Z,59.92
2018-03-07T05:36:29.189Z,63.45
2018-03-07T05:37:31.731Z,60.97
2018-03-07T05:38:34.252Z,61.75
2018-03-07T05:39:36.785Z,62.53
2018-03-07T05:40:39.351Z,59.55
2018-03-07T05:41:41.877Z,60.95
2018-03-07T05:42:45.177Z,61.90
2018-03-07T05:43:47.721Z,62.70
2018-03-07T05:44:50.273Z,63.42
2018-03-07T05:45:52.836Z,62.50
2018-03-07T05:46:55.361Z,60.25
2018-03-07T05:47:57.932Z,62.28
2018-03-07T05:49:00.458Z,62.95
2018-03-07T05:50:03.762Z,64.03
2018-03-07T05:51:06.289Z,63.90
2018-03-07T05:52:08.853Z,61.47
2018-03-07T05:53:11.384Z,61.33
2018-03-07T05:54:13.926Z,62.58
2018-03-07T05:55:16.463Z,60.40
2018-03-07T05:56:19.037Z,61.83
2018-03-07T05:57:22.327Z,60.58
2018-03-07T05:58:25.625Z,63.42
2018-03-07T05:59:28.157Z,61.05
2018-03-07T06:00:30.734Z,60.55
2018-03-07T06:01:33.259Z,61.35
2018-03-07T06:02:35.800Z,60.40
2018-03-07T06:03:38.334Z,62.25
2018-03-07T06:04:40.858Z,60.00
2018-03-07T06:05:43.416Z,62.67
2018-03-07T06:06:45.969Z,60.75
2018-03-07T06:07:48.494Z,61.70
2018-03-07T06:08:51.021Z,60.15
2018-03-07T06:09:53.547Z,60.55
2018-03-07T06:10:56.866Z,61.72
2018-03-07T06:11:59.403Z,61.47
2018-03-07T06:13:01.937Z,59.55
2018-03-07T06:14:04.469Z,61.88
2018-03-07T06:15:07.008Z,59.90
2018-03-07T06:16:09.569Z,62.08
2018-03-07T06:17:12.129Z,59.67
2018-03-07T06:18:14.704Z,60.38
2018-03-07T06:19:17.233Z,60.55
2018-03-07T06:20:19.758Z,61.65
2018-03-07T06:21:22.287Z,63.08
2018-03-07T06:22:24.825Z,69.30
2018-03-07T06:23:27.390Z,60.47
2018-03-07T06:24:33.859Z,63.33
2018-03-07T06:25:36.451Z,65.70
2018-03-07T06:26:38.982Z,63.20
2018-03-07T06:27:41.517Z,65.00
2018-03-07T06:28:44.082Z,67.70
2018-03-07T06:29:46.608Z,63.45
2018-03-07T06:30:49.888Z,62.05
2018-03-07T06:31:52.421Z,61.45
2018-03-07T06:32:54.949Z,61.17
2018-03-07T06:33:57.500Z,62.03
2018-03-07T06:35:00.027Z,62.25
2018-03-07T06:36:02.579Z,61.33
2018-03-07T06:37:05.113Z,64.12
2018-03-07T06:38:07.639Z,62.65
2018-03-07T06:39:10.216Z,60.53
2018-03-07T06:40:13.509Z,61.53
2018-03-07T06:41:16.056Z,62.00
2018-03-07T06:42:18.591Z,61.30
2018-03-07T06:43:21.116Z,58.45
2018-03-07T06:44:23.688Z,62.38
2018-03-07T06:45:26.231Z,62.97
2018-03-07T06:46:29.566Z,62.15
2018-03-07T06:47:32.066Z,63.47
2018-03-07T06:48:34.636Z,62.60
2018-03-07T06:49:37.174Z,63.40
2018-03-07T06:50:39.702Z,63.90
2018-03-07T06:51:42.280Z,63.35
2018-03-07T06:52:44.823Z,59.33
2018-03-07T06:53:48.110Z,61.83
2018-03-07T06:54:51.403Z,59.78
2018-03-07T06:55:53.945Z,60.75
2018-03-07T06:56:57.265Z,58.38
2018-03-07T06:57:59.789Z,61.75
2018-03-07T06:59:02.309Z,62.45
2018-03-07T07:00:04.857Z,58.80
2018-03-07T07:01:07.381Z,60.50
2018-03-07T07:02:09.906Z,61.55
2018-03-07T07:03:12.449Z,59.63
2018-03-07T07:04:15.013Z,58.58
2018-03-07T07:05:17.536Z,63.78
2018-03-07T07:06:20.061Z,58.42
2018-03-07T07:07:22.581Z,62.20
2018-03-07T07:08:25.242Z,59.38
2018-03-07T07:09:27.782Z,63.13
2018-03-07T07:10:30.311Z,61.55
2018-03-07T07:11:32.891Z,60.45
2018-03-07T07:12:36.154Z,63.50
2018-03-07T07:13:39.474Z,59.97
2018-03-07T07:14:42.006Z,59.80
2018-03-07T07:15:45.301Z,59.80
2018-03-07T07:16:47.863Z,59.85
2018-03-07T07:17:51.180Z,57.70
2018-03-07T07:18:53.720Z,65.20
2018-03-07T07:19:56.249Z,60.97
2018-03-07T07:20:59.573Z,59.47
2018-03-07T07:22:02.104Z,58.17
2018-03-07T07:23:04.629Z,59.58
2018-03-07T07:24:07.165Z,60.50
2018-03-07T07:25:09.712Z,56.78
2018-03-07T07:26:13.049Z,60.92
2018-03-07T07:27:15.566Z,59.38
2018-03-07T07:28:18.870Z,60.30
2018-03-07T07:29:21.402Z,62.08
2018-03-07T07:30:23.931Z,60.95
2018-03-07T07:31:26.486Z,58.78
2018-03-07T07:32:29.773Z,60.47
2018-03-07T07:33:32.317Z,63.05
2018-03-07T07:34:34.836Z,62.33
2018-03-07T07:35:37.481Z,62.33
2018-03-07T07:36:40.034Z,60.83
2018-03-07T07:37:42.549Z,60.28
2018-03-07T07:38:45.107Z,61.88
2018-03-07T07:39:47.642Z,61.37
2018-03-07T07:40:50.161Z,63.95
2018-03-07T07:41:53.452Z,63.03
2018-03-07T07:42:56.783Z,60.92
2018-03-07T07:43:59.322Z,60.33
2018-03-07T07:45:01.859Z,63.47
2018-03-07T07:46:05.208Z,60.80
2018-03-07T07:47:07.742Z,63.45
2018-03-07T07:48:10.273Z,60.90
2018-03-07T07:49:13.578Z,61.33
2018-03-07T07:50:16.109Z,63.33
2018-03-07T07:51:18.677Z,61.80
2018-03-07T07:52:21.481Z,62.22
2018-03-07T07:53:24.043Z,62.97
2018-03-07T07:54:26.592Z,60.83
2018-03-07T07:55:29.113Z,61.25
2018-03-07T07:56:31.645Z,60.55
2018-03-07T07:57:34.192Z,61.58
2018-03-07T07:58:37.485Z,61.83
2018-03-07T07:59:40.780Z,62.60
2018-03-07T08:00:43.347Z,63.25
2018-03-07T08:01:46.616Z,62.22
2018-03-07T08:02:49.955Z,61.70
2018-03-07T08:03:52.482Z,60.78
2018-03-07T08:04:55.013Z,61.92
2018-03-07T08:05:57.594Z,62.15
2018-03-07T08:07:00.081Z,61.30
2018-03-07T08:08:02.654Z,61.75
2018-03-07T08:09:05.196Z,65.55
2018-03-07T08:10:08.495Z,66.90
2018-03-07T08:11:11.067Z,64.28
2018-03-07T08:12:13.580Z,62.13
2018-03-07T08:13:16.132Z,62.78
2018-03-07T08:14:18.660Z,63.65
2018-03-07T08:15:21.221Z,63.13
2018-03-07T08:16:24.501Z,65.07
2018-03-07T08:17:27.801Z,62.65
2018-03-07T08:18:30.325Z,63.75
2018-03-07T08:19:32.849Z,62.70
2018-03-07T08:20:35.413Z,60.88
2018-03-07T08:21:37.942Z,62.38
2018-03-07T08:22:41.248Z,64.30
2018-03-07T08:23:43.776Z,62.65
2018-03-07T08:24:46.298Z,62.70
2018-03-07T08:25:48.884Z,63.28
2018-03-07T08:26:51.411Z,63.15
2018-03-07T08:27:53.942Z,64.35
2018-03-07T08:28:56.477Z,62.95
2018-03-07T08:29:59.003Z,63.42
2018-03-07T08:31:01.556Z,66.50
2018-03-07T08:32:04.849Z,64.15
2018-03-07T08:33:08.140Z,66.12
2018-03-07T08:34:10.666Z,65.25
2018-03-07T08:35:13.221Z,68.68
2018-03-07T08:36:15.752Z,65.70
2018-03-07T08:37:18.316Z,63.00
2018-03-07T08:38:20.837Z,68.93
2018-03-07T08:39:23.374Z,63.87
2018-03-07T08:40:25.896Z,62.80
2018-03-07T08:41:29.189Z,65.10
2018-03-07T08:42:31.768Z,65.40
2018-03-07T08:43:34.298Z,67.10
2018-03-07T08:44:36.838Z,64.60
2018-03-07T08:45:39.373Z,64.22
2018-03-07T08:46:41.908Z,65.28
2018-03-07T08:47:44.460Z,63.42
2018-03-07T08:48:46.999Z,64.12
2018-03-07T08:49:49.541Z,65.07
2018-03-07T08:50:52.070Z,66.35
2018-03-07T08:51:55.369Z,65.28
2018-03-07T08:52:57.921Z,64.45
2018-03-07T08:54:01.248Z,65.72
2018-03-07T08:55:03.764Z,62.88
2018-03-07T08:56:07.053Z,64.95
2018-03-07T08:57:10.334Z,65.65
2018-03-07T08:58:13.630Z,63.65
2018-03-07T08:59:16.965Z,66.10
2018-03-07T09:00:19.498Z,62.08
2018-03-07T09:01:22.026Z,61.70
2018-03-07T09:02:24.558Z,60.75
2018-03-07T09:03:27.083Z,64.57
2018-03-07T09:04:29.661Z,66.15
2018-03-07T09:05:32.197Z,67.00
2018-03-07T09:06:35.485Z,64.80
2018-03-07T09:07:38.790Z,61.20
2018-03-07T09:08:41.325Z,65.80
2018-03-07T09:09:44.648Z,62.35
2018-03-07T09:10:47.174Z,62.40
2018-03-07T09:11:49.698Z,65.70
2018-03-07T09:12:52.231Z,66.20
2018-03-07T09:13:54.797Z,62.97
2018-03-07T09:14:57.337Z,65.93
2018-03-07T09:15:59.874Z,60.55
2018-03-07T09:17:02.413Z,63.53
2018-03-07T09:18:04.972Z,62.00
2018-03-07T09:19:07.497Z,62.50
2018-03-07T09:20:10.029Z,62.30
2018-03-07T09:21:12.564Z,63.97
2018-03-07T09:22:15.098Z,64.35
2018-03-07T09:23:17.657Z,66.47
2018-03-07T09:24:20.187Z,65.05
2018-03-07T09:25:22.709Z,65.75
2018-03-07T09:26:25.999Z,62.97
2018-03-07T09:27:29.333Z,60.67
2018-03-07T09:28:31.862Z,68.20
2018-03-07T09:29:34.402Z,61.65
2018-03-07T09:30:37.697Z,67.65
2018-03-07T09:31:40.997Z,65.68
2018-03-07T09:32:43.568Z,65.47
2018-03-07T09:33:46.095Z,64.65
2018-03-07T09:34:48.624Z,62.22
2018-03-07T09:35:51.154Z,63.80
2018-03-07T09:36:54.446Z,64.87
2018-03-07T09:37:57.005Z,67.68
2018-03-07T09:39:00.288Z,63.13
2018-03-07T09:40:03.635Z,65.15
2018-03-07T09:41:06.164Z,65.55
2018-03-07T09:42:08.692Z,64.12
2018-03-07T09:43:11.990Z,65.87
2018-03-07T09:44:15.268Z,63.45
2018-03-07T09:45:17.944Z,66.10
2018-03-07T09:46:21.228Z,66.78
2018-03-07T09:47:23.770Z,62.03
2018-03-07T09:48:26.369Z,65.05
2018-03-07T09:49:28.930Z,62.17
2018-03-07T09:50:32.248Z,66.65
2018-03-07T09:51:35.525Z,66.57
2018-03-07T09:52:38.045Z,64.78
2018-03-07T09:53:41.346Z,67.45
2018-03-07T09:54:43.914Z,64.03
2018-03-07T09:55:46.436Z,64.57
2018-03-07T09:56:48.958Z,67.28
2018-03-07T09:57:51.482Z,64.78
2018-03-07T09:58:54.003Z,63.55
2018-03-07T09:59:56.573Z,64.95
2018-03-07T10:00:59.096Z,65.37
2018-03-07T10:02:02.432Z,67.30
2018-03-07T10:03:04.946Z,64.57
2018-03-07T10:04:07.539Z,65.45
2018-03-07T10:05:10.107Z,65.57
2018-03-07T10:06:12.634Z,64.62
2018-03-07T10:07:15.158Z,63.75
2018-03-07T10:08:17.723Z,64.20
2018-03-07T10:09:20.251Z,63.50
2018-03-07T10:10:23.542Z,64.85
2018-03-07T10:11:26.826Z,63.15
2018-03-07T10:12:29.385Z,64.10
2018-03-07T10:13:32.668Z,63.33
2018-03-07T10:14:36.128Z,64.93
2018-03-07T10:15:38.637Z,68.40
2018-03-07T10:16:41.203Z,66.03
2018-03-07T10:17:44.480Z,68.25
2018-03-07T10:18:47.008Z,66.05
2018-03-07T10:19:49.577Z,67.80
2018-03-07T10:20:52.130Z,66.60
2018-03-07T10:21:54.662Z,67.93
2018-03-07T10:22:57.253Z,67.30
2018-03-07T10:23:59.766Z,67.45
2018-03-07T10:25:02.334Z,71.50
2018-03-07T10:26:04.833Z,66.68
2018-03-07T10:27:07.356Z,68.28
2018-03-07T10:28:10.686Z,70.62
2018-03-07T10:29:13.217Z,67.72
2018-03-07T10:30:16.517Z,67.45
2018-03-07T10:31:19.041Z,68.45
2018-03-07T10:32:21.566Z,70.25
2018-03-07T10:33:27.069Z,66.82
2018-03-07T10:34:30.358Z,66.18
2018-03-07T10:35:32.893Z,69.18
2018-03-07T10:36:35.417Z,65.37
2018-03-07T10:37:37.976Z,63.08
2018-03-07T10:38:41.118Z,69.53
2018-03-07T10:39:43.643Z,67.25
2018-03-07T10:40:46.196Z,68.78
2018-03-07T10:41:48.738Z,69.15
2018-03-07T10:42:51.303Z,64.45
2018-03-07T10:43:54.601Z,60.00
2018-03-07T10:44:57.125Z,63.85
2018-03-07T10:45:59.647Z,61.72
2018-03-07T10:47:02.174Z,61.70
2018-03-07T10:48:05.510Z,64.75
2018-03-07T10:49:08.038Z,63.85
2018-03-07T10:50:10.577Z,63.63
2018-03-07T10:51:13.102Z,64.75
2018-03-07T10:52:15.635Z,64.75
2018-03-07T10:53:18.207Z,62.05
2018-03-07T10:54:20.749Z,62.53
2018-03-07T10:55:24.055Z,62.55
2018-03-07T10:56:26.600Z,64.72
2018-03-07T10:57:29.910Z,59.10
2018-03-07T10:58:32.475Z,62.47
2018-03-07T10:59:35.033Z,62.10
2018-03-07T11:00:38.378Z,63.63
2018-03-07T11:01:40.929Z,63.87
2018-03-07T11:02:43.467Z,62.10
2018-03-07T11:03:46.765Z,62.92
2018-03-07T11:04:49.329Z,65.28
2018-03-07T11:05:53.075Z,64.18
2018-03-07T11:06:55.602Z,64.80
2018-03-07T11:07:58.134Z,63.45
2018-03-07T11:09:00.701Z,65.15
2018-03-07T11:10:03.229Z,63.25
2018-03-07T11:11:05.767Z,61.17
2018-03-07T11:12:08.338Z,64.97
2018-03-07T11:13:10.865Z,63.17
2018-03-07T11:14:13.411Z,62.80
2018-03-07T11:15:16.706Z,61.88
2018-03-07T11:16:20.040Z,61.22
2018-03-07T11:17:22.583Z,64.82
2018-03-07T11:18:25.124Z,63.42
2018-03-07T11:19:28.417Z,62.47
2018-03-07T11:20:30.986Z,61.83
2018-03-07T11:21:33.566Z,62.05
2018-03-07T11:22:36.102Z,63.15
2018-03-07T11:23:39.412Z,59.60
2018-03-07T11:24:41.937Z,62.67
2018-03-07T11:25:44.476Z,60.70
2018-03-07T11:26:47.059Z,60.30
2018-03-07T11:27:49.597Z,63.13
2018-03-07T11:28:52.131Z,63.10
2018-03-07T11:29:54.665Z,61.70
2018-03-07T11:30:57.195Z,60.83
2018-03-07T11:31:59.775Z,66.68
2018-03-07T11:33:02.317Z,62.05
2018-03-07T11:34:04.848Z,63.70
2018-03-07T11:35:08.152Z,60.50
2018-03-07T11:36:10.705Z,61.78
2018-03-07T11:37:14.041Z,60.00
2018-03-07T11:38:16.612Z,55.97
2018-03-07T11:39:19.154Z,59.40
2018-03-07T11:40:21.686Z,58.55
2018-03-07T11:41:24.986Z,55.10
2018-03-07T11:42:27.510Z,57.40
2018-03-07T11:43:30.094Z,58.03
2018-03-07T11:44:33.395Z,56.55
2018-03-07T11:45:35.934Z,57.58
2018-03-07T11:46:38.481Z,57.55
2018-03-07T11:47:41.022Z,57.13
2018-03-07T11:48:43.602Z,56.53
2018-03-07T11:49:46.134Z,55.95
2018-03-07T11:50:48.668Z,60.30
2018-03-07T11:51:51.243Z,57.30
2018-03-07T11:52:54.542Z,58.65
2018-03-07T11:53:57.116Z,55.92
2018-03-07T11:54:59.636Z,56.15
2018-03-07T11:56:02.186Z,55.38
2018-03-07T11:57:04.714Z,49.80
2018-03-07T11:58:07.246Z,50.47
2018-03-07T11:59:09.820Z,53.55
2018-03-07T12:00:12.358Z,52.00
2018-03-07T12:01:14.891Z,52.35
2018-03-07T12:02:17.424Z,52.22
2018-03-07T12:03:20.719Z,52.38
2018-03-07T12:04:24.057Z,52.90
2018-03-07T12:05:26.579Z,51.65
2018-03-07T12:06:29.123Z,50.05
2018-03-07T12:07:32.414Z,48.60
2018-03-07T12:08:35.722Z,50.22
2018-03-07T12:09:38.299Z,49.53
2018-03-07T12:10:40.834Z,48.15
2018-03-07T12:11:44.137Z,49.88
2018-03-07T12:12:46.672Z,50.10
2018-03-07T12:13:49.965Z,46.72
2018-03-07T12:14:53.294Z,36.85
2018-03-07T12:15:55.821Z,36.00
2018-03-07T12:16:58.350Z,32.45
2018-03-07T12:18:00.901Z,31.65
2018-03-07T12:19:03.422Z,30.65
2018-03-07T12:20:06.760Z,29.23
2018-03-07T12:21:09.290Z,30.00
2018-03-07T12:22:11.813Z,27.58
2018-03-07T12:23:14.337Z,29.98
2018-03-07T12:24:16.870Z,30.33
2018-03-07T12:25:19.441Z,29.98
2018-03-07T12:26:22.022Z,30.17
2018-03-07T12:27:24.559Z,29.10
2018-03-07T12:28:27.861Z,29.52
2018-03-07T12:29:30.386Z,30.88
2018-03-07T12:30:32.979Z,28.00
2018-03-07T12:31:36.290Z,29.35
2018-03-07T12:32:38.817Z,29.20
2018-03-07T12:33:41.387Z,28.58
2018-03-07T12:34:43.913Z,28.62
2018-03-07T12:35:46.441Z,28.95
2018-03-07T12:36:48.994Z,28.83
2018-03-07T12:37:52.290Z,30.35
2018-03-07T12:38:54.822Z,28.35
2018-03-07T12:39:57.350Z,29.42
2018-03-07T12:40:59.885Z,27.80
2018-03-07T12:42:02.446Z,29.35
2018-03-07T12:43:05.751Z,31.23
2018-03-07T12:44:08.309Z,28.02
2018-03-07T12:45:10.837Z,28.35
2018-03-07T12:46:13.361Z,25.65
2018-03-07T12:47:15.887Z,23.65
2018-03-07T12:48:19.225Z,26.65
2018-03-07T12:49:21.756Z,28.83
2018-03-07T12:50:24.301Z,27.30
2018-03-07T12:51:27.593Z,27.15
2018-03-07T12:52:30.896Z,26.50
2018-03-07T12:53:33.454Z,26.77
2018-03-07T12:54:35.977Z,26.85
2018-03-07T12:55:38.545Z,27.90
2018-03-07T12:56:41.065Z,28.40
2018-03-07T12:57:43.605Z,26.55
2018-03-07T12:58:46.909Z,28.10
2018-03-07T12:59:49.477Z,27.05
2018-03-07T13:00:52.019Z,27.15
2018-03-07T13:01:55.315Z,25.27
2018-03-07T13:02:58.643Z,26.50
2018-03-07T13:04:01.174Z,26.80
2018-03-07T13:05:03.694Z,26.87
2018-03-07T13:06:06.257Z,26.77
2018-03-07T13:07:08.782Z,25.85
2018-03-07T13:08:11.329Z,29.30
2018-03-07T13:09:14.619Z,27.67
2018-03-07T13:10:17.148Z,26.45
2018-03-07T13:11:19.706Z,28.05
2018-03-07T13:12:22.265Z,29.95
2018-03-07T13:13:24.841Z,31.20
2018-03-07T13:14:27.365Z,29.15
2018-03-07T13:15:30.668Z,28.85
2018-03-07T13:16:33.193Z,32.67
2018-03-07T13:17:36.477Z,33.72
2018-03-07T13:18:39.797Z,33.17
2018-03-07T13:19:42.313Z,33.53
2018-03-07T13:20:45.609Z,32.50
2018-03-07T13:21:48.933Z,33.80
2018-03-07T13:22:51.473Z,33.38
2018-03-07T13:23:54.008Z,33.70
2018-03-07T13:24:56.723Z,32.75
2018-03-07T13:25:59.263Z,33.10
2018-03-07T13:27:02.555Z,31.45
2018-03-07T13:28:05.157Z,29.30